createdAt,value
2022-08-05T00:02:07.886Z,17.39
2022-08-05T00:04:40.245Z,17.36
2022-08-05T00:07:26.987Z,17.33
2022-08-05T00:09:57.370Z,17.29
2022-08-05T00:12:27.395Z,17.22
2022-08-05T00:14:55.621Z,17.19
2022-08-05T00:17:23.865Z,17.17
2022-08-05T00:20:01.855Z,17.15
2022-08-05T00:22:31.485Z,17.12
2022-08-05T00:25:00.222Z,17.09
2022-08-05T00:27:36.168Z,17.01
2022-08-05T00:30:11.342Z,16.94
2022-08-05T00:32:40.567Z,16.91
2022-08-05T00:35:09.281Z,16.86
2022-08-05T00:37:53.206Z,16.81
2022-08-05T00:40:27.484Z,16.78
2022-08-05T00:43:00.546Z,16.77
2022-08-05T00:45:43.154Z,16.76
2022-08-05T00:48:17.802Z,16.77
2022-08-05T00:50:56.514Z,16.77
2022-08-05T00:54:01.375Z,16.76
2022-08-05T00:56:17.260Z,16.75
2022-08-05T00:58:50.967Z,16.72
2022-08-05T01:05:41.018Z,16.56
2022-08-05T01:08:40.292Z,16.52
2022-08-05T01:11:05.154Z,16.49
2022-08-05T01:14:03.222Z,16.46
2022-08-05T01:16:52.993Z,16.42
2022-08-05T01:19:56.085Z,16.41
2022-08-05T01:22:30.243Z,16.37
2022-08-05T01:25:15.721Z,16.33
2022-08-05T01:28:08.696Z,16.29
2022-08-05T01:30:52.412Z,16.26
2022-08-05T01:33:35.538Z,16.23
2022-08-05T01:36:12.981Z,16.18
2022-08-05T01:38:48.487Z,16.12
2022-08-05T01:41:25.498Z,16.10
2022-08-05T01:43:55.587Z,16.07
2022-08-05T01:46:42.578Z,16.04
2022-08-05T01:49:25.530Z,16.01
2022-08-05T01:52:17.994Z,16.00
2022-08-05T01:54:52.867Z,16.01
2022-08-05T01:58:29.796Z,16.05
2022-08-05T02:00:21.395Z,16.10
2022-08-05T02:03:29.130Z,16.15
2022-08-05T02:06:03.717Z,16.21
2022-08-05T02:08:58.147Z,16.23
2022-08-05T02:11:42.181Z,16.25
2022-08-05T02:14:17.726Z,16.25
2022-08-05T02:16:53.260Z,16.27
2022-08-05T02:19:33.488Z,16.27
2022-08-05T02:22:25.651Z,16.26
2022-08-05T02:25:06.413Z,16.24
2022-08-05T02:27:59.381Z,16.21
2022-08-05T02:30:35.349Z,16.17
2022-08-05T02:33:06.708Z,16.12
2022-08-05T02:35:44.901Z,16.08
2022-08-05T02:38:32.502Z,16.05
2022-08-05T02:41:14.549Z,16.00
2022-08-05T02:44:02.557Z,15.97
2022-08-05T02:46:53.311Z,15.94
2022-08-05T02:49:27.776Z,15.94
2022-08-05T02:52:09.937Z,15.94
2022-08-05T02:54:42.326Z,15.96
2022-08-05T02:58:12.113Z,15.96
2022-08-05T03:00:12.090Z,15.94
2022-08-05T03:02:42.795Z,15.91
2022-08-05T03:05:11.998Z,15.88
2022-08-05T03:08:06.683Z,15.84
2022-08-05T03:10:31.107Z,15.83
2022-08-05T03:15:26.776Z,15.81
2022-08-05T03:17:57.672Z,15.81
2022-08-05T03:20:26.520Z,15.82
2022-08-05T03:22:57.645Z,15.81
2022-08-05T03:26:02.705Z,15.78
2022-08-05T03:28:19.729Z,15.75
2022-08-05T03:30:49.622Z,15.73
2022-08-05T03:33:19.835Z,15.66
2022-08-05T03:35:49.923Z,15.66
2022-08-05T03:38:24.003Z,15.70
2022-08-05T03:41:08.388Z,15.73
2022-08-05T03:44:09.335Z,15.79
2022-08-05T03:46:29.725Z,15.90
2022-08-05T03:48:59.025Z,16.03
2022-08-05T03:52:38.510Z,16.38
2022-08-05T03:55:52.876Z,17.78
2022-08-05T03:57:41.739Z,19.33
2022-08-05T04:00:15.987Z,20.61
2022-08-05T04:02:58.789Z,21.74
2022-08-05T04:05:34.663Z,22.82
2022-08-05T04:08:30.028Z,23.73
2022-08-05T04:10:56.066Z,24.52
2022-08-05T04:13:27.832Z,25.17
2022-08-05T04:16:15.679Z,26.12
2022-08-05T04:18:54.901Z,26.92
2022-08-05T04:22:09.084Z,27.73
2022-08-05T04:24:19.319Z,28.62
2022-08-05T04:26:50.983Z,29.32
2022-08-05T04:29:19.902Z,29.92
2022-08-05T04:31:49.595Z,30.40
2022-08-05T04:34:32.850Z,30.61
2022-08-05T04:37:03.976Z,30.68
2022-08-05T04:39:35.371Z,30.57
2022-08-05T04:42:04.261Z,30.28
2022-08-05T04:44:32.649Z,29.80
2022-08-05T04:47:09.860Z,28.85
2022-08-05T04:50:01.793Z,27.58
2022-08-05T04:52:28.498Z,26.26
2022-08-05T04:54:57.767Z,25.33
2022-08-05T04:57:28.970Z,24.57
2022-08-05T04:59:58.449Z,23.94
2022-08-05T05:02:42.022Z,23.55
2022-08-05T05:05:26.333Z,23.25
2022-08-05T05:08:02.379Z,23.02
2022-08-05T05:10:33.689Z,22.89
2022-08-05T05:13:04.136Z,22.75
2022-08-05T05:15:57.154Z,22.67
2022-08-05T05:18:31.497Z,22.58
2022-08-05T05:21:04.273Z,22.55
2022-08-05T05:24:02.179Z,22.51
2022-08-05T05:26:28.557Z,22.44
2022-08-05T05:29:02.269Z,22.43
2022-08-05T05:34:02.224Z,22.50
2022-08-05T05:36:32.116Z,22.53
2022-08-05T05:39:00.786Z,22.59
2022-08-05T05:41:40.376Z,22.73
2022-08-05T05:44:36.229Z,22.87
2022-08-05T05:47:04.267Z,22.98
2022-08-05T05:49:36.217Z,23.10
2022-08-05T05:52:07.279Z,23.23
2022-08-05T05:54:50.225Z,23.32
2022-08-05T05:57:20.477Z,23.38
2022-08-05T05:59:49.164Z,23.47
2022-08-05T06:02:32.588Z,23.55
2022-08-05T06:05:16.377Z,23.68
2022-08-05T06:08:01.150Z,23.74
2022-08-05T06:10:37.581Z,23.81
2022-08-05T06:13:19.020Z,23.92
2022-08-05T06:16:29.109Z,23.99
2022-08-05T06:18:39.436Z,24.10
2022-08-05T06:21:18.504Z,24.17
2022-08-05T06:23:47.150Z,24.26
2022-08-05T06:26:21.653Z,24.34
2022-08-05T06:28:53.306Z,24.41
2022-08-05T06:31:32.114Z,24.48
2022-08-05T06:34:06.877Z,24.52
2022-08-05T06:36:57.381Z,24.57
2022-08-05T06:39:27.742Z,24.68
2022-08-05T06:42:04.123Z,24.72
2022-08-05T06:44:32.806Z,24.79
2022-08-05T06:47:01.455Z,24.94
2022-08-05T06:50:02.083Z,25.09
2022-08-05T06:52:38.292Z,25.18
2022-08-05T06:55:08.624Z,25.25
2022-08-05T06:58:03.375Z,25.28
2022-08-05T07:00:25.518Z,25.40
2022-08-05T07:02:54.388Z,25.48
2022-08-05T07:05:37.022Z,25.59
2022-08-05T07:08:10.711Z,25.71
2022-08-05T07:10:52.403Z,25.83
2022-08-05T07:13:57.584Z,25.97
2022-08-05T07:17:56.727Z,26.09
2022-08-05T07:20:16.453Z,26.19
2022-08-05T07:22:27.666Z,26.29
2022-08-05T07:25:23.487Z,26.39
2022-08-05T07:28:00.092Z,26.40
2022-08-05T07:30:38.994Z,26.43
2022-08-05T07:33:16.650Z,26.52
2022-08-05T07:36:04.410Z,26.59
2022-08-05T07:38:43.270Z,26.63
2022-08-05T07:42:12.825Z,26.73
2022-08-05T07:44:18.646Z,26.87
2022-08-05T07:46:49.793Z,26.99
2022-08-05T07:49:20.773Z,27.05
2022-08-05T07:51:53.751Z,27.10
2022-08-05T07:54:31.329Z,27.14
2022-08-05T07:57:18.194Z,27.19
2022-08-05T07:59:53.905Z,27.29
2022-08-05T08:02:31.040Z,27.33
2022-08-05T08:05:18.406Z,27.36
2022-08-05T08:07:59.953Z,27.36
2022-08-05T08:10:30.284Z,27.41
2022-08-05T08:12:59.005Z,27.51
2022-08-05T08:16:33.194Z,27.58
2022-08-05T08:18:20.944Z,27.64
2022-08-05T08:21:02.059Z,27.71
2022-08-05T08:24:03.054Z,27.81
2022-08-05T08:26:26.869Z,27.88
2022-08-05T08:29:22.012Z,27.95
2022-08-05T08:31:50.126Z,27.98
2022-08-05T08:34:29.969Z,27.99
2022-08-05T08:37:03.305Z,28.09
2022-08-05T08:39:37.183Z,28.14
2022-08-05T08:42:33.785Z,28.20
2022-08-05T08:45:24.013Z,28.26
2022-08-05T08:48:10.558Z,28.31
2022-08-05T08:51:04.084Z,28.45
2022-08-05T08:53:37.372Z,28.58
2022-08-05T08:56:06.613Z,28.66
2022-08-05T08:58:43.005Z,28.75
2022-08-05T09:01:15.983Z,28.80
2022-08-05T09:03:48.327Z,28.87
2022-08-05T09:06:28.063Z,28.94
2022-08-05T09:09:01.186Z,28.99
2022-08-05T09:11:53.077Z,29.07
2022-08-05T09:14:56.854Z,29.17
2022-08-05T09:17:40.182Z,29.24
2022-08-05T09:20:05.319Z,29.25
2022-08-05T09:23:19.137Z,29.27
2022-08-05T09:26:01.830Z,29.36
2022-08-05T09:28:34.667Z,29.41
2022-08-05T09:32:38.569Z,29.44
2022-08-05T09:34:00.111Z,29.54
2022-08-05T09:36:54.609Z,29.62
2022-08-05T09:39:27.688Z,29.69
2022-08-05T09:42:11.385Z,29.72
2022-08-05T09:44:56.756Z,29.81
2022-08-05T09:47:48.501Z,29.88
2022-08-05T09:50:38.857Z,29.93
2022-08-05T09:53:10.437Z,30.00
2022-08-05T09:55:59.127Z,30.01
2022-08-05T09:58:29.852Z,30.06
2022-08-05T10:01:13.462Z,30.11
2022-08-05T10:04:00.631Z,30.16
2022-08-05T10:06:29.569Z,30.22
2022-08-05T10:09:25.338Z,30.30
2022-08-05T10:12:30.708Z,30.38
2022-08-05T10:15:16.924Z,30.41
2022-08-05T10:18:07.158Z,30.45
2022-08-05T10:20:41.954Z,30.52
2022-08-05T10:23:34.706Z,30.53
2022-08-05T10:26:07.058Z,30.63
2022-08-05T10:28:36.766Z,30.71
2022-08-05T10:32:48.233Z,30.68
2022-08-05T10:33:54.294Z,30.62
2022-08-05T10:36:23.603Z,30.66
2022-08-05T10:39:10.466Z,30.67
2022-08-05T10:42:11.316Z,30.71
2022-08-05T10:44:45.520Z,30.83
2022-08-05T10:47:26.805Z,30.88
2022-08-05T10:50:28.054Z,30.93
2022-08-05T10:52:58.821Z,30.97
2022-08-05T10:55:27.962Z,30.92
2022-08-05T10:58:11.340Z,30.95
2022-08-05T11:00:55.077Z,31.04
2022-08-05T11:03:31.272Z,31.11
2022-08-05T11:06:08.703Z,31.16
2022-08-05T11:09:31.930Z,31.20
2022-08-05T11:12:50.784Z,31.15
2022-08-05T11:16:00.173Z,31.20
2022-08-05T11:18:34.102Z,31.20
2022-08-05T11:21:11.262Z,31.30
2022-08-05T11:24:04.649Z,31.43
2022-08-05T11:26:49.715Z,31.59
2022-08-05T11:29:41.115Z,31.68
2022-08-05T11:32:27.511Z,31.72
2022-08-05T11:34:58.612Z,31.82
2022-08-05T11:38:28.523Z,31.89
2022-08-05T11:41:12.691Z,31.92
2022-08-05T11:44:05.153Z,31.93
2022-08-05T11:46:58.658Z,31.97
2022-08-05T11:49:37.590Z,32.05
2022-08-05T11:52:11.519Z,32.13
2022-08-05T11:54:41.821Z,32.13
2022-08-05T11:57:24.273Z,32.17
2022-08-05T11:59:54.832Z,32.25
2022-08-05T12:02:30.637Z,32.24
2022-08-05T12:05:07.963Z,32.20
2022-08-05T12:08:10.385Z,32.20
2022-08-05T12:10:45.371Z,32.26
2022-08-05T12:13:27.687Z,32.32
2022-08-05T12:16:14.685Z,32.39
2022-08-05T12:18:49.554Z,32.42
2022-08-05T12:21:29.756Z,32.49
2022-08-05T12:24:05.235Z,32.53
2022-08-05T12:26:36.580Z,32.55
2022-08-05T12:29:09.393Z,32.57
2022-08-05T12:31:46.024Z,32.71
2022-08-05T12:34:25.747Z,32.74
2022-08-05T12:37:17.027Z,32.77
2022-08-05T12:39:51.881Z,32.81
2022-08-05T12:42:25.165Z,32.76
2022-08-05T12:45:02.629Z,32.78
2022-08-05T12:47:31.592Z,32.79
2022-08-05T12:50:04.404Z,32.81
2022-08-05T12:52:39.702Z,32.87
2022-08-05T12:55:37.350Z,32.96
2022-08-05T12:58:39.120Z,32.99
2022-08-05T13:02:03.861Z,33.04
2022-08-05T13:03:45.700Z,33.09
2022-08-05T13:06:18.005Z,33.22
2022-08-05T13:08:52.421Z,33.26
2022-08-05T13:11:25.525Z,33.25
2022-08-05T13:14:24.882Z,33.24
2022-08-05T13:17:20.421Z,33.35
2022-08-05T13:20:07.341Z,33.45
2022-08-05T13:22:45.991Z,33.54
2022-08-05T13:25:22.187Z,33.52
2022-08-05T13:28:07.920Z,33.44
2022-08-05T13:30:39.335Z,33.37
2022-08-05T13:33:07.691Z,33.33
2022-08-05T13:35:47.465Z,33.23
2022-08-05T13:38:30.650Z,33.19
2022-08-05T13:41:03.977Z,33.23
2022-08-05T13:43:44.093Z,33.32
2022-08-05T13:46:16.298Z,33.44
2022-08-05T13:49:01.016Z,33.54
2022-08-05T13:51:40.478Z,33.56
2022-08-05T13:54:12.078Z,33.60
2022-08-05T13:56:45.341Z,33.59
2022-08-05T13:59:27.529Z,33.55
2022-08-05T14:02:00.588Z,33.54
2022-08-05T14:04:51.750Z,33.60
2022-08-05T14:07:59.517Z,33.61
2022-08-05T14:10:28.853Z,33.73
2022-08-05T14:12:59.990Z,33.73
2022-08-05T14:16:07.975Z,33.79
2022-08-05T14:18:23.360Z,33.85
2022-08-05T14:20:55.095Z,33.80
2022-08-05T14:23:28.806Z,33.90
2022-08-05T14:26:06.332Z,34.07
2022-08-05T14:28:37.460Z,34.11
2022-08-05T14:31:54.290Z,34.12
2022-08-05T14:34:12.023Z,34.21
2022-08-05T14:36:40.431Z,34.17
2022-08-05T14:39:10.836Z,34.14
2022-08-05T14:41:42.872Z,34.10
2022-08-05T14:44:33.924Z,34.06
2022-08-05T14:47:02.922Z,34.04
2022-08-05T14:49:59.541Z,33.98
2022-08-05T14:52:42.800Z,34.05
2022-08-05T14:55:21.597Z,34.10
2022-08-05T14:57:56.132Z,33.97
2022-08-05T15:00:27.929Z,33.87
2022-08-05T15:02:57.248Z,33.92
2022-08-05T15:05:30.176Z,33.99
2022-08-05T15:08:17.845Z,34.00
2022-08-05T15:11:04.507Z,33.89
2022-08-05T15:13:46.042Z,33.91
2022-08-05T15:16:15.113Z,33.97
2022-08-05T15:18:43.488Z,33.89
2022-08-05T15:21:16.136Z,33.86
2022-08-05T15:23:50.040Z,33.78
2022-08-05T15:26:31.971Z,33.70
2022-08-05T15:29:02.466Z,33.56
2022-08-05T15:31:34.949Z,33.46
2022-08-05T15:34:18.419Z,33.35
2022-08-05T15:36:52.617Z,33.21
2022-08-05T15:40:59.594Z,33.10
2022-08-05T15:42:56.868Z,32.97
2022-08-05T15:45:01.139Z,32.83
2022-08-05T15:47:29.817Z,32.72
2022-08-05T15:50:05.200Z,32.60
2022-08-05T15:52:54.230Z,32.49
2022-08-05T15:55:24.701Z,32.38
2022-08-05T15:58:16.799Z,32.25
2022-08-05T16:01:03.584Z,32.14
2022-08-05T16:03:34.149Z,32.07
2022-08-05T16:06:02.593Z,31.96
2022-08-05T16:08:31.017Z,31.89
2022-08-05T16:10:59.505Z,31.82
2022-08-05T16:13:31.879Z,31.74
2022-08-05T16:16:04.072Z,31.68
2022-08-05T16:18:33.233Z,31.61
2022-08-05T16:21:05.111Z,31.54
2022-08-05T16:23:53.744Z,31.49
2022-08-05T16:26:26.518Z,31.40
2022-08-05T16:28:55.767Z,31.30
2022-08-05T16:31:26.943Z,31.20
2022-08-05T16:34:16.729Z,31.10
2022-08-05T16:36:45.340Z,31.00
2022-08-05T16:39:15.986Z,30.90
2022-08-05T16:42:14.525Z,30.81
2022-08-05T16:44:33.738Z,30.73
2022-08-05T16:47:03.416Z,30.67
2022-08-05T16:49:32.696Z,30.60
2022-08-05T16:52:01.112Z,30.50
2022-08-05T16:54:33.089Z,30.40
2022-08-05T16:57:01.626Z,30.28
2022-08-05T16:59:35.541Z,30.16
2022-08-05T17:02:24.064Z,30.02
2022-08-05T17:04:57.378Z,29.89
2022-08-05T17:07:39.073Z,29.77
2022-08-05T17:10:11.749Z,29.63
2022-08-05T17:12:50.909Z,29.51
2022-08-05T17:15:20.889Z,29.40
2022-08-05T17:17:55.148Z,29.29
2022-08-05T17:20:25.086Z,29.17
2022-08-05T17:22:55.681Z,29.03
2022-08-05T17:25:33.669Z,28.91
2022-08-05T17:28:02.830Z,28.80
2022-08-05T17:30:31.200Z,28.70
2022-08-05T17:32:59.456Z,28.60
2022-08-05T17:35:32.663Z,28.48
2022-08-05T17:38:17.546Z,28.35
2022-08-05T17:40:45.895Z,28.26
2022-08-05T17:43:15.846Z,28.16
2022-08-05T17:45:47.588Z,28.08
2022-08-05T17:48:21.097Z,27.98
2022-08-05T17:50:53.248Z,27.88
2022-08-05T17:53:22.462Z,27.76
2022-08-05T17:55:53.870Z,27.67
2022-08-05T17:58:32.414Z,27.57
2022-08-05T18:01:01.158Z,27.45
2022-08-05T18:03:58.695Z,27.32
2022-08-05T18:06:17.820Z,27.19
2022-08-05T18:08:57.840Z,27.08
2022-08-05T18:11:33.416Z,26.97
2022-08-05T18:14:04.540Z,26.85
2022-08-05T18:16:51.219Z,26.75
2022-08-05T18:19:23.014Z,26.65
2022-08-05T18:22:08.567Z,26.54
2022-08-05T18:24:39.653Z,26.46
2022-08-05T18:27:18.304Z,26.41
2022-08-05T18:29:54.107Z,26.36
2022-08-05T18:32:28.433Z,26.29
2022-08-05T18:34:58.587Z,26.23
2022-08-05T18:37:34.825Z,26.16
2022-08-05T18:40:34.233Z,26.07
2022-08-05T18:43:02.827Z,25.99
2022-08-05T18:45:41.486Z,25.90
2022-08-05T18:48:12.009Z,25.82
2022-08-05T18:52:06.652Z,25.76
2022-08-05T18:54:06.736Z,25.67
2022-08-05T18:56:38.048Z,25.59
2022-08-05T18:59:44.173Z,25.54
2022-08-05T19:01:56.964Z,25.48
2022-08-05T19:04:27.504Z,25.42
2022-08-05T19:06:56.111Z,25.35
2022-08-05T19:09:24.360Z,25.27
2022-08-05T19:12:00.196Z,25.22
2022-08-05T19:14:52.419Z,25.14
2022-08-05T19:17:19.605Z,25.05
2022-08-05T19:19:50.616Z,24.96
2022-08-05T19:22:27.537Z,24.87
2022-08-05T19:25:00.967Z,24.76
2022-08-05T19:27:31.154Z,24.69
2022-08-05T19:30:02.812Z,24.63
2022-08-05T19:32:31.659Z,24.58
2022-08-05T19:35:05.635Z,24.51
2022-08-05T19:38:04.220Z,24.46
2022-08-05T19:40:24.462Z,24.39
2022-08-05T19:43:05.409Z,24.34
2022-08-05T19:45:36.883Z,24.26
2022-08-05T19:48:06.337Z,24.19
2022-08-05T19:50:35.254Z,24.12
2022-08-05T19:53:10.636Z,24.03
2022-08-05T19:56:12.477Z,23.95
2022-08-05T19:58:31.090Z,23.88
2022-08-05T20:01:06.787Z,23.84
2022-08-05T20:03:40.619Z,23.78
2022-08-05T20:06:11.738Z,23.75
2022-08-05T20:08:47.627Z,23.74
2022-08-05T20:11:19.396Z,23.71
2022-08-05T20:13:54.999Z,23.69
2022-08-05T20:16:37.188Z,23.65
2022-08-05T20:19:06.307Z,23.61
2022-08-05T20:21:35.117Z,23.56
2022-08-05T20:24:07.286Z,23.50
2022-08-05T20:26:39.917Z,23.47
2022-08-05T20:29:26.673Z,23.43
2022-08-05T20:31:58.295Z,23.39
2022-08-05T20:34:28.375Z,23.34
2022-08-05T20:37:02.954Z,23.30
2022-08-05T20:39:36.900Z,23.26
2022-08-05T20:42:21.720Z,23.20
2022-08-05T20:44:59.038Z,23.15
2022-08-05T20:47:53.245Z,23.10
2022-08-05T20:50:32.638Z,23.08
2022-08-05T20:53:00.885Z,23.03
2022-08-05T20:55:56.456Z,23.00
2022-08-05T20:58:21.583Z,22.98
2022-08-05T21:00:54.644Z,22.96
2022-08-05T21:03:25.356Z,22.94
2022-08-05T21:05:55.602Z,22.92
2022-08-05T21:08:42.499Z,22.89
2022-08-05T21:11:51.568Z,22.84
2022-08-05T21:14:01.560Z,22.76
2022-08-05T21:16:30.922Z,22.70
2022-08-05T21:19:01.207Z,22.65
2022-08-05T21:21:43.994Z,22.62
2022-08-05T21:24:15.365Z,22.60
2022-08-05T21:26:58.455Z,22.57
2022-08-05T21:29:31.785Z,22.54
2022-08-05T21:32:04.930Z,22.49
2022-08-05T21:34:35.565Z,22.45
2022-08-05T21:37:05.204Z,22.42
2022-08-05T21:39:40.242Z,22.39
2022-08-05T21:42:38.926Z,22.35
2022-08-05T21:45:00.838Z,22.28
2022-08-05T21:47:54.956Z,22.21
2022-08-05T21:50:18.959Z,22.17
2022-08-05T21:52:50.526Z,22.16
2022-08-05T21:56:00.842Z,22.16
2022-08-05T21:58:10.525Z,22.14
2022-08-05T22:00:40.438Z,22.14
2022-08-05T22:03:14.528Z,22.14
2022-08-05T22:05:48.733Z,22.14
2022-08-05T22:08:21.969Z,22.12
2022-08-05T22:10:51.669Z,22.11
2022-08-05T22:14:06.192Z,22.12
2022-08-05T22:16:32.093Z,22.10
2022-08-05T22:18:58.996Z,22.07
2022-08-05T22:21:27.488Z,22.02
2022-08-05T22:24:39.637Z,21.97
2022-08-05T22:27:21.731Z,21.93
2022-08-05T22:29:50.093Z,21.91
2022-08-05T22:32:23.045Z,21.89
2022-08-05T22:34:55.164Z,21.85
2022-08-05T22:37:24.611Z,21.85
2022-08-05T22:40:16.710Z,21.86
2022-08-05T22:42:57.782Z,21.84
2022-08-05T22:45:26.701Z,21.85
2022-08-05T22:47:57.163Z,21.84
2022-08-05T22:50:26.761Z,21.83
2022-08-05T22:52:56.965Z,21.82
2022-08-05T22:55:26.115Z,21.81
2022-08-05T22:57:55.033Z,21.78
2022-08-05T23:00:24.060Z,21.76
2022-08-05T23:02:56.374Z,21.75
2022-08-05T23:05:26.524Z,21.59
2022-08-05T23:07:55.065Z,21.42
2022-08-05T23:10:24.424Z,21.33
2022-08-05T23:12:54.579Z,21.21
2022-08-05T23:15:34.955Z,21.18
2022-08-05T23:18:06.093Z,21.20
2022-08-05T23:20:40.606Z,21.21
2022-08-05T23:23:11.852Z,21.21
2022-08-05T23:25:50.963Z,21.20
2022-08-05T23:28:29.138Z,21.18
2022-08-05T23:31:16.562Z,21.11
2022-08-05T23:34:05.356Z,21.10
2022-08-05T23:36:38.635Z,21.07
2022-08-05T23:39:09.894Z,21.04
2022-08-05T23:41:48.668Z,21.01
2022-08-05T23:44:22.560Z,20.91
2022-08-05T23:46:53.604Z,20.85
2022-08-05T23:49:35.820Z,20.77
2022-08-05T23:52:25.538Z,20.77
2022-08-05T23:54:55.915Z,20.78
2022-08-05T23:57:28.336Z,20.76
